Terminal Aerodrome Forecast
Issued by NWS

Home | Current Version | Previous Version | Text Only | Print | Product List | Glossary On
Versions: 1 2 3 4 5 6 7 8 9 10 11 12 13 14 15 16 17 18 19 20 21 22 23 24 25 26
000
FTUS44 KLIX 030532
TAFHUM
TAF
KHUM 030532Z 0306/0406 19003KT P6SM SCT250
      TEMPO 0309/0312 5SM BR SCT015
     FM031400 20010KT P6SM SCT035
     FM040100 19005KT P6SM BKN250=

USA.gov is the U.S. government's official web portal to all federal, state and local government web resources and services.